sensor_id;sensor_type;location;lat;lon;timestamp;P1;durP1;ratioP1;P2;durP2;ratioP2
19189;SDS011;9727;50.200;19.038;2023-10-31T00:02:28;7.17;;;4.00;;
19189;SDS011;9727;50.200;19.038;2023-10-31T00:04:55;10.17;;;4.27;;
19189;SDS011;9727;50.200;19.038;2023-10-31T00:07:23;8.17;;;4.60;;
19189;SDS011;9727;50.200;19.038;2023-10-31T00:09:49;6.43;;;4.07;;
19189;SDS011;9727;50.200;19.038;2023-10-31T00:12:19;11.40;;;5.33;;
19189;SDS011;9727;50.200;19.038;2023-10-31T00:14:45;8.43;;;5.27;;
19189;SDS011;9727;50.200;19.038;2023-10-31T00:17:12;8.03;;;4.80;;
19189;SDS011;9727;50.200;19.038;2023-10-31T00:19:39;9.47;;;4.90;;
19189;SDS011;9727;50.200;19.038;2023-10-31T00:22:05;8.30;;;4.90;;
19189;SDS011;9727;50.200;19.038;2023-10-31T00:24:33;10.70;;;6.20;;
19189;SDS011;9727;50.200;19.038;2023-10-31T00:27:00;10.80;;;5.63;;
19189;SDS011;9727;50.200;19.038;2023-10-31T00:29:27;12.83;;;5.40;;
19189;SDS011;9727;50.200;19.038;2023-10-31T00:31:53;9.00;;;5.20;;
19189;SDS011;9727;50.200;19.038;2023-10-31T00:34:20;14.13;;;6.77;;
19189;SDS011;9727;50.200;19.038;2023-10-31T00:36:47;11.43;;;6.23;;
19189;SDS011;9727;50.200;19.038;2023-10-31T00:39:13;11.87;;;6.10;;
19189;SDS011;9727;50.200;19.038;2023-10-31T00:41:43;13.33;;;5.97;;
19189;SDS011;9727;50.200;19.038;2023-10-31T00:44:13;13.43;;;6.60;;
19189;SDS011;9727;50.200;19.038;2023-10-31T00:46:39;9.17;;;5.57;;
19189;SDS011;9727;50.200;19.038;2023-10-31T00:49:06;8.50;;;4.97;;
19189;SDS011;9727;50.200;19.038;2023-10-31T00:51:33;9.43;;;4.90;;
19189;SDS011;9727;50.200;19.038;2023-10-31T00:53:59;7.87;;;4.60;;
19189;SDS011;9727;50.200;19.038;2023-10-31T00:56:29;8.13;;;4.40;;
19189;SDS011;9727;50.200;19.038;2023-10-31T00:58:57;7.83;;;4.53;;
19189;SDS011;9727;50.200;19.038;2023-10-31T01:01:25;11.73;;;4.17;;
19189;SDS011;9727;50.200;19.038;2023-10-31T01:03:52;7.17;;;3.50;;
19189;SDS011;9727;50.200;19.038;2023-10-31T01:06:18;8.13;;;3.80;;
19189;SDS011;9727;50.200;19.038;2023-10-31T01:08:46;11.70;;;4.00;;
19189;SDS011;9727;50.200;19.038;2023-10-31T01:11:13;11.60;;;4.27;;
19189;SDS011;9727;50.200;19.038;2023-10-31T01:13:39;14.03;;;4.97;;
19189;SDS011;9727;50.200;19.038;2023-10-31T01:16:07;7.63;;;3.90;;
19189;SDS011;9727;50.200;19.038;2023-10-31T01:18:34;11.37;;;4.37;;
19189;SDS011;9727;50.200;19.038;2023-10-31T01:21:01;7.97;;;3.83;;
19189;SDS011;9727;50.200;19.038;2023-10-31T01:23:28;6.40;;;2.60;;
19189;SDS011;9727;50.200;19.038;2023-10-31T01:25:54;5.27;;;2.20;;
19189;SDS011;9727;50.200;19.038;2023-10-31T01:28:21;2.47;;;1.70;;
19189;SDS011;9727;50.200;19.038;2023-10-31T01:30:47;3.67;;;2.00;;
19189;SDS011;9727;50.200;19.038;2023-10-31T01:33:16;7.73;;;2.17;;
19189;SDS011;9727;50.200;19.038;2023-10-31T01:35:45;4.93;;;1.97;;
19189;SDS011;9727;50.200;19.038;2023-10-31T01:38:12;5.07;;;1.80;;
19189;SDS011;9727;50.200;19.038;2023-10-31T01:40:39;3.70;;;1.83;;
19189;SDS011;9727;50.200;19.038;2023-10-31T01:43:06;4.03;;;1.80;;
19189;SDS011;9727;50.200;19.038;2023-10-31T01:45:34;3.57;;;2.20;;
19189;SDS011;9727;50.200;19.038;2023-10-31T01:48:00;2.93;;;1.23;;
19189;SDS011;9727;50.200;19.038;2023-10-31T01:50:28;8.27;;;1.97;;
19189;SDS011;9727;50.200;19.038;2023-10-31T01:52:55;3.63;;;1.57;;
19189;SDS011;9727;50.200;19.038;2023-10-31T01:55:22;4.13;;;1.53;;
19189;SDS011;9727;50.200;19.038;2023-10-31T01:57:52;3.87;;;1.50;;
19189;SDS011;9727;50.200;19.038;2023-10-31T02:00:19;3.47;;;1.30;;
19189;SDS011;9727;50.200;19.038;2023-10-31T02:02:46;2.73;;;1.37;;
19189;SDS011;9727;50.200;19.038;2023-10-31T02:05:12;5.10;;;1.50;;
19189;SDS011;9727;50.200;19.038;2023-10-31T02:07:40;6.83;;;1.70;;
19189;SDS011;9727;50.200;19.038;2023-10-31T02:10:09;2.93;;;1.73;;
19189;SDS011;9727;50.200;19.038;2023-10-31T02:12:36;3.40;;;1.40;;
19189;SDS011;9727;50.200;19.038;2023-10-31T02:15:04;3.63;;;1.60;;
19189;SDS011;9727;50.200;19.038;2023-10-31T02:17:30;4.67;;;1.50;;
19189;SDS011;9727;50.200;19.038;2023-10-31T02:19:57;3.33;;;1.80;;
19189;SDS011;9727;50.200;19.038;2023-10-31T02:22:28;4.13;;;1.50;;
19189;SDS011;9727;50.200;19.038;2023-10-31T02:24:54;2.80;;;1.30;;
19189;SDS011;9727;50.200;19.038;2023-10-31T02:27:21;2.47;;;1.20;;
19189;SDS011;9727;50.200;19.038;2023-10-31T02:29:47;2.87;;;1.50;;
19189;SDS011;9727;50.200;19.038;2023-10-31T02:32:14;2.80;;;1.50;;
19189;SDS011;9727;50.200;19.038;2023-10-31T02:34:44;4.90;;;1.63;;
19189;SDS011;9727;50.200;19.038;2023-10-31T02:37:10;5.40;;;1.40;;
19189;SDS011;9727;50.200;19.038;2023-10-31T02:39:38;3.07;;;1.73;;
19189;SDS011;9727;50.200;19.038;2023-10-31T02:42:05;3.33;;;1.53;;
19189;SDS011;9727;50.200;19.038;2023-10-31T02:44:32;5.00;;;1.70;;
19189;SDS011;9727;50.200;19.038;2023-10-31T02:46:58;6.47;;;1.67;;
19189;SDS011;9727;50.200;19.038;2023-10-31T02:49:25;3.27;;;1.37;;
19189;SDS011;9727;50.200;19.038;2023-10-31T02:51:52;2.73;;;1.60;;
19189;SDS011;9727;50.200;19.038;2023-10-31T02:54:18;3.03;;;1.30;;
19189;SDS011;9727;50.200;19.038;2023-10-31T02:56:46;3.13;;;1.70;;
19189;SDS011;9727;50.200;19.038;2023-10-31T02:59:13;1.97;;;1.50;;
19189;SDS011;9727;50.200;19.038;2023-10-31T03:01:39;4.07;;;1.50;;
19189;SDS011;9727;50.200;19.038;2023-10-31T03:04:06;7.57;;;1.67;;
19189;SDS011;9727;50.200;19.038;2023-10-31T03:06:32;5.33;;;1.67;;
19189;SDS011;9727;50.200;19.038;2023-10-31T03:08:59;3.10;;;1.40;;
19189;SDS011;9727;50.200;19.038;2023-10-31T03:11:26;1.87;;;1.27;;
19189;SDS011;9727;50.200;19.038;2023-10-31T03:13:54;2.07;;;1.37;;
19189;SDS011;9727;50.200;19.038;2023-10-31T03:16:21;2.63;;;1.63;;
19189;SDS011;9727;50.200;19.038;2023-10-31T03:18:48;2.90;;;1.37;;
19189;SDS011;9727;50.200;19.038;2023-10-31T03:21:14;4.40;;;1.80;;
19189;SDS011;9727;50.200;19.038;2023-10-31T03:23:46;5.73;;;1.70;;
19189;SDS011;9727;50.200;19.038;2023-10-31T03:26:13;3.60;;;1.57;;
19189;SDS011;9727;50.200;19.038;2023-10-31T03:28:42;2.40;;;1.33;;
19189;SDS011;9727;50.200;19.038;2023-10-31T03:31:10;5.77;;;2.00;;
19189;SDS011;9727;50.200;19.038;2023-10-31T03:33:37;4.70;;;1.40;;
19189;SDS011;9727;50.200;19.038;2023-10-31T03:36:04;3.60;;;1.60;;
19189;SDS011;9727;50.200;19.038;2023-10-31T03:38:30;4.33;;;2.00;;
19189;SDS011;9727;50.200;19.038;2023-10-31T03:40:57;5.27;;;2.00;;
19189;SDS011;9727;50.200;19.038;2023-10-31T03:43:23;3.43;;;2.13;;
19189;SDS011;9727;50.200;19.038;2023-10-31T03:45:51;5.43;;;1.87;;
19189;SDS011;9727;50.200;19.038;2023-10-31T03:48:22;4.33;;;1.80;;
19189;SDS011;9727;50.200;19.038;2023-10-31T03:50:49;2.23;;;1.80;;
19189;SDS011;9727;50.200;19.038;2023-10-31T03:53:16;4.67;;;2.07;;
19189;SDS011;9727;50.200;19.038;2023-10-31T03:55:45;6.37;;;2.00;;
19189;SDS011;9727;50.200;19.038;2023-10-31T03:58:12;4.50;;;2.30;;
19189;SDS011;9727;50.200;19.038;2023-10-31T04:00:38;3.37;;;1.83;;
19189;SDS011;9727;50.200;19.038;2023-10-31T04:03:05;4.77;;;2.10;;
19189;SDS011;9727;50.200;19.038;2023-10-31T04:05:33;3.03;;;1.70;;
19189;SDS011;9727;50.200;19.038;2023-10-31T04:07:59;3.77;;;1.60;;
19189;SDS011;9727;50.200;19.038;2023-10-31T04:10:26;3.10;;;1.67;;
19189;SDS011;9727;50.200;19.038;2023-10-31T04:12:53;3.73;;;2.00;;
19189;SDS011;9727;50.200;19.038;2023-10-31T04:15:20;3.63;;;1.50;;
19189;SDS011;9727;50.200;19.038;2023-10-31T04:17:46;2.37;;;1.60;;
19189;SDS011;9727;50.200;19.038;2023-10-31T04:20:13;5.20;;;1.70;;
19189;SDS011;9727;50.200;19.038;2023-10-31T04:22:41;3.57;;;1.67;;
19189;SDS011;9727;50.200;19.038;2023-10-31T04:25:10;5.77;;;2.20;;
19189;SDS011;9727;50.200;19.038;2023-10-31T04:27:36;3.90;;;1.53;;
19189;SDS011;9727;50.200;19.038;2023-10-31T04:30:03;4.10;;;1.87;;
19189;SDS011;9727;50.200;19.038;2023-10-31T04:32:30;5.57;;;2.03;;
19189;SDS011;9727;50.200;19.038;2023-10-31T04:34:58;4.07;;;1.70;;
19189;SDS011;9727;50.200;19.038;2023-10-31T04:37:27;8.63;;;1.80;;
19189;SDS011;9727;50.200;19.038;2023-10-31T04:39:55;4.17;;;1.60;;
19189;SDS011;9727;50.200;19.038;2023-10-31T04:42:21;4.37;;;1.93;;
19189;SDS011;9727;50.200;19.038;2023-10-31T04:44:49;6.07;;;1.60;;
19189;SDS011;9727;50.200;19.038;2023-10-31T04:47:19;4.27;;;1.60;;
19189;SDS011;9727;50.200;19.038;2023-10-31T04:49:46;3.47;;;1.80;;
19189;SDS011;9727;50.200;19.038;2023-10-31T04:52:15;3.20;;;1.50;;
19189;SDS011;9727;50.200;19.038;2023-10-31T04:54:51;6.73;;;1.87;;
19189;SDS011;9727;50.200;19.038;2023-10-31T04:57:21;3.83;;;1.60;;
19189;SDS011;9727;50.200;19.038;2023-10-31T04:59:48;4.27;;;1.50;;
19189;SDS011;9727;50.200;19.038;2023-10-31T05:02:22;5.27;;;1.87;;
19189;SDS011;9727;50.200;19.038;2023-10-31T05:04:49;2.80;;;1.80;;
19189;SDS011;9727;50.200;19.038;2023-10-31T05:07:16;5.53;;;1.60;;
19189;SDS011;9727;50.200;19.038;2023-10-31T05:09:48;4.60;;;1.63;;
19189;SDS011;9727;50.200;19.038;2023-10-31T05:12:22;2.90;;;1.90;;
19189;SDS011;9727;50.200;19.038;2023-10-31T05:14:49;5.20;;;1.60;;
19189;SDS011;9727;50.200;19.038;2023-10-31T05:17:19;3.27;;;1.57;;
19189;SDS011;9727;50.200;19.038;2023-10-31T05:19:46;6.90;;;1.70;;
19189;SDS011;9727;50.200;19.038;2023-10-31T05:22:12;5.07;;;1.70;;
19189;SDS011;9727;50.200;19.038;2023-10-31T05:24:39;4.77;;;1.77;;
19189;SDS011;9727;50.200;19.038;2023-10-31T05:27:05;4.90;;;2.03;;
19189;SDS011;9727;50.200;19.038;2023-10-31T05:29:38;4.10;;;1.70;;
19189;SDS011;9727;50.200;19.038;2023-10-31T05:32:06;5.65;;;1.90;;
19189;SDS011;9727;50.200;19.038;2023-10-31T05:34:33;6.37;;;1.87;;
19189;SDS011;9727;50.200;19.038;2023-10-31T05:37:00;6.03;;;1.70;;
19189;SDS011;9727;50.200;19.038;2023-10-31T05:39:26;5.20;;;1.80;;
19189;SDS011;9727;50.200;19.038;2023-10-31T05:41:53;7.78;;;1.70;;
19189;SDS011;9727;50.200;19.038;2023-10-31T05:44:19;4.57;;;2.42;;
19189;SDS011;9727;50.200;19.038;2023-10-31T05:46:47;5.22;;;1.67;;
19189;SDS011;9727;50.200;19.038;2023-10-31T05:49:14;5.50;;;2.20;;
19189;SDS011;9727;50.200;19.038;2023-10-31T05:51:49;5.25;;;1.73;;
19189;SDS011;9727;50.200;19.038;2023-10-31T05:54:22;7.85;;;1.90;;
19189;SDS011;9727;50.200;19.038;2023-10-31T05:56:49;2.42;;;1.75;;
19189;SDS011;9727;50.200;19.038;2023-10-31T05:59:20;5.75;;;1.75;;
19189;SDS011;9727;50.200;19.038;2023-10-31T06:01:51;11.52;;;1.98;;
19189;SDS011;9727;50.200;19.038;2023-10-31T06:04:18;9.27;;;2.20;;
19189;SDS011;9727;50.200;19.038;2023-10-31T06:06:53;7.15;;;1.88;;
19189;SDS011;9727;50.200;19.038;2023-10-31T06:09:20;4.30;;;1.90;;
19189;SDS011;9727;50.200;19.038;2023-10-31T06:11:49;3.70;;;1.60;;
19189;SDS011;9727;50.200;19.038;2023-10-31T06:14:18;7.43;;;2.20;;
19189;SDS011;9727;50.200;19.038;2023-10-31T06:16:48;5.43;;;1.70;;
19189;SDS011;9727;50.200;19.038;2023-10-31T06:19:18;5.28;;;2.30;;
19189;SDS011;9727;50.200;19.038;2023-10-31T06:21:45;3.67;;;1.67;;
19189;SDS011;9727;50.200;19.038;2023-10-31T06:24:13;3.40;;;1.50;;
19189;SDS011;9727;50.200;19.038;2023-10-31T06:26:41;5.75;;;2.00;;
19189;SDS011;9727;50.200;19.038;2023-10-31T06:29:08;4.13;;;2.08;;
19189;SDS011;9727;50.200;19.038;2023-10-31T06:31:35;4.93;;;1.40;;
19189;SDS011;9727;50.200;19.038;2023-10-31T06:34:06;7.78;;;1.65;;
19189;SDS011;9727;50.200;19.038;2023-10-31T06:36:45;6.37;;;1.60;;
19189;SDS011;9727;50.200;19.038;2023-10-31T06:39:12;4.05;;;1.67;;
19189;SDS011;9727;50.200;19.038;2023-10-31T06:41:38;4.63;;;1.70;;
19189;SDS011;9727;50.200;19.038;2023-10-31T06:44:10;5.90;;;2.00;;
19189;SDS011;9727;50.200;19.038;2023-10-31T06:46:36;7.30;;;1.70;;
19189;SDS011;9727;50.200;19.038;2023-10-31T06:49:13;7.85;;;1.98;;
19189;SDS011;9727;50.200;19.038;2023-10-31T06:51:41;6.18;;;2.13;;
19189;SDS011;9727;50.200;19.038;2023-10-31T06:54:08;3.05;;;1.65;;
19189;SDS011;9727;50.200;19.038;2023-10-31T06:56:34;3.67;;;1.73;;
19189;SDS011;9727;50.200;19.038;2023-10-31T06:59:01;7.55;;;1.70;;
19189;SDS011;9727;50.200;19.038;2023-10-31T07:01:28;6.18;;;1.77;;
19189;SDS011;9727;50.200;19.038;2023-10-31T07:03:54;3.72;;;1.83;;
19189;SDS011;9727;50.200;19.038;2023-10-31T07:06:25;7.13;;;2.10;;
19189;SDS011;9727;50.200;19.038;2023-10-31T07:08:53;4.72;;;1.90;;
19189;SDS011;9727;50.200;19.038;2023-10-31T07:11:20;6.60;;;1.80;;
19189;SDS011;9727;50.200;19.038;2023-10-31T07:13:47;4.53;;;1.73;;
19189;SDS011;9727;50.200;19.038;2023-10-31T07:16:14;4.75;;;1.63;;
19189;SDS011;9727;50.200;19.038;2023-10-31T07:18:48;5.63;;;1.90;;
19189;SDS011;9727;50.200;19.038;2023-10-31T07:24:05;6.10;;;1.95;;
19189;SDS011;9727;50.200;19.038;2023-10-31T07:26:33;3.25;;;2.00;;
19189;SDS011;9727;50.200;19.038;2023-10-31T07:29:00;7.75;;;2.17;;
19189;SDS011;9727;50.200;19.038;2023-10-31T07:31:28;8.70;;;2.03;;
19189;SDS011;9727;50.200;19.038;2023-10-31T07:33:56;6.00;;;2.40;;
19189;SDS011;9727;50.200;19.038;2023-10-31T07:36:23;3.95;;;1.98;;
19189;SDS011;9727;50.200;19.038;2023-10-31T07:38:50;5.00;;;2.00;;
19189;SDS011;9727;50.200;19.038;2023-10-31T07:41:20;2.37;;;1.80;;
19189;SDS011;9727;50.200;19.038;2023-10-31T07:43:46;4.37;;;1.97;;
19189;SDS011;9727;50.200;19.038;2023-10-31T07:46:13;2.92;;;1.70;;
19189;SDS011;9727;50.200;19.038;2023-10-31T07:48:40;7.07;;;2.00;;
19189;SDS011;9727;50.200;19.038;2023-10-31T07:51:08;3.72;;;1.75;;
19189;SDS011;9727;50.200;19.038;2023-10-31T07:53:35;4.25;;;2.58;;
19189;SDS011;9727;50.200;19.038;2023-10-31T07:56:01;4.85;;;1.85;;
19189;SDS011;9727;50.200;19.038;2023-10-31T07:58:30;6.43;;;2.17;;
19189;SDS011;9727;50.200;19.038;2023-10-31T08:00:56;7.60;;;2.25;;
19189;SDS011;9727;50.200;19.038;2023-10-31T08:03:23;4.80;;;2.03;;
19189;SDS011;9727;50.200;19.038;2023-10-31T08:05:51;4.60;;;1.90;;
19189;SDS011;9727;50.200;19.038;2023-10-31T08:11:07;9.20;;;2.10;;
19189;SDS011;9727;50.200;19.038;2023-10-31T08:13:36;6.50;;;2.20;;
19189;SDS011;9727;50.200;19.038;2023-10-31T08:16:03;7.45;;;2.67;;
19189;SDS011;9727;50.200;19.038;2023-10-31T08:18:30;6.27;;;2.30;;
19189;SDS011;9727;50.200;19.038;2023-10-31T08:20:56;5.17;;;2.23;;
19189;SDS011;9727;50.200;19.038;2023-10-31T08:23:23;6.57;;;2.33;;
19189;SDS011;9727;50.200;19.038;2023-10-31T08:25:50;4.97;;;2.50;;
19189;SDS011;9727;50.200;19.038;2023-10-31T08:28:16;4.53;;;2.30;;
19189;SDS011;9727;50.200;19.038;2023-10-31T08:30:47;6.70;;;2.60;;
19189;SDS011;9727;50.200;19.038;2023-10-31T08:33:14;4.93;;;2.50;;
19189;SDS011;9727;50.200;19.038;2023-10-31T08:35:41;5.55;;;2.38;;
19189;SDS011;9727;50.200;19.038;2023-10-31T08:38:08;4.17;;;2.17;;
19189;SDS011;9727;50.200;19.038;2023-10-31T08:40:34;3.63;;;2.03;;
19189;SDS011;9727;50.200;19.038;2023-10-31T08:43:01;5.30;;;2.13;;
19189;SDS011;9727;50.200;19.038;2023-10-31T08:45:29;3.83;;;2.10;;
19189;SDS011;9727;50.200;19.038;2023-10-31T08:47:57;7.13;;;2.70;;
19189;SDS011;9727;50.200;19.038;2023-10-31T08:50:24;4.93;;;2.43;;
19189;SDS011;9727;50.200;19.038;2023-10-31T08:52:50;5.55;;;2.30;;
19189;SDS011;9727;50.200;19.038;2023-10-31T08:55:20;3.90;;;2.10;;
19189;SDS011;9727;50.200;19.038;2023-10-31T08:57:48;7.73;;;2.50;;
19189;SDS011;9727;50.200;19.038;2023-10-31T09:00:20;4.53;;;2.10;;
19189;SDS011;9727;50.200;19.038;2023-10-31T09:02:47;4.90;;;2.43;;
19189;SDS011;9727;50.200;19.038;2023-10-31T09:05:24;5.93;;;2.70;;
19189;SDS011;9727;50.200;19.038;2023-10-31T09:07:51;7.27;;;2.53;;
19189;SDS011;9727;50.200;19.038;2023-10-31T09:10:18;5.20;;;2.60;;
19189;SDS011;9727;50.200;19.038;2023-10-31T09:12:45;5.87;;;2.93;;
19189;SDS011;9727;50.200;19.038;2023-10-31T09:15:19;6.43;;;3.20;;
19189;SDS011;9727;50.200;19.038;2023-10-31T09:17:50;6.27;;;3.10;;
19189;SDS011;9727;50.200;19.038;2023-10-31T09:20:18;6.97;;;3.20;;
19189;SDS011;9727;50.200;19.038;2023-10-31T09:22:46;9.60;;;4.03;;
19189;SDS011;9727;50.200;19.038;2023-10-31T09:25:13;14.20;;;3.40;;
19189;SDS011;9727;50.200;19.038;2023-10-31T09:27:40;6.50;;;3.10;;
19189;SDS011;9727;50.200;19.038;2023-10-31T09:30:07;5.40;;;2.97;;
19189;SDS011;9727;50.200;19.038;2023-10-31T09:32:34;6.57;;;3.10;;
19189;SDS011;9727;50.200;19.038;2023-10-31T09:35:01;4.65;;;2.88;;
19189;SDS011;9727;50.200;19.038;2023-10-31T09:37:28;3.77;;;2.63;;
19189;SDS011;9727;50.200;19.038;2023-10-31T09:39:56;8.10;;;3.23;;
19189;SDS011;9727;50.200;19.038;2023-10-31T09:42:23;5.70;;;3.00;;
19189;SDS011;9727;50.200;19.038;2023-10-31T09:44:50;9.60;;;2.70;;
19189;SDS011;9727;50.200;19.038;2023-10-31T09:47:16;4.57;;;2.70;;
19189;SDS011;9727;50.200;19.038;2023-10-31T09:49:44;4.60;;;2.53;;
19189;SDS011;9727;50.200;19.038;2023-10-31T09:52:14;4.57;;;2.30;;
19189;SDS011;9727;50.200;19.038;2023-10-31T09:54:41;5.77;;;2.63;;
19189;SDS011;9727;50.200;19.038;2023-10-31T09:57:10;4.43;;;2.20;;
19189;SDS011;9727;50.200;19.038;2023-10-31T09:59:37;4.30;;;2.20;;
19189;SDS011;9727;50.200;19.038;2023-10-31T10:02:04;3.73;;;2.40;;
19189;SDS011;9727;50.200;19.038;2023-10-31T10:04:34;4.67;;;2.27;;
19189;SDS011;9727;50.200;19.038;2023-10-31T10:07:05;6.40;;;1.90;;
19189;SDS011;9727;50.200;19.038;2023-10-31T10:09:35;3.00;;;2.20;;
19189;SDS011;9727;50.200;19.038;2023-10-31T10:12:21;3.40;;;1.90;;
19189;SDS011;9727;50.200;19.038;2023-10-31T10:14:48;3.73;;;1.90;;
19189;SDS011;9727;50.200;19.038;2023-10-31T10:17:20;3.23;;;1.93;;
19189;SDS011;9727;50.200;19.038;2023-10-31T10:19:50;3.73;;;2.00;;
19189;SDS011;9727;50.200;19.038;2023-10-31T10:22:31;3.17;;;1.90;;
19189;SDS011;9727;50.200;19.038;2023-10-31T10:24:59;4.23;;;2.13;;
19189;SDS011;9727;50.200;19.038;2023-10-31T10:27:28;3.47;;;2.00;;
19189;SDS011;9727;50.200;19.038;2023-10-31T10:29:56;5.47;;;1.90;;
19189;SDS011;9727;50.200;19.038;2023-10-31T10:32:23;2.53;;;1.60;;
19189;SDS011;9727;50.200;19.038;2023-10-31T10:34:51;4.47;;;1.83;;
19189;SDS011;9727;50.200;19.038;2023-10-31T10:37:18;4.00;;;1.70;;
19189;SDS011;9727;50.200;19.038;2023-10-31T10:39:46;5.37;;;2.07;;
19189;SDS011;9727;50.200;19.038;2023-10-31T10:42:14;3.70;;;1.90;;
19189;SDS011;9727;50.200;19.038;2023-10-31T10:44:50;5.97;;;1.90;;
19189;SDS011;9727;50.200;19.038;2023-10-31T10:47:19;2.50;;;1.70;;
19189;SDS011;9727;50.200;19.038;2023-10-31T10:49:47;5.30;;;1.63;;
19189;SDS011;9727;50.200;19.038;2023-10-31T10:52:20;5.30;;;1.93;;
19189;SDS011;9727;50.200;19.038;2023-10-31T10:55:03;5.20;;;1.90;;
19189;SDS011;9727;50.200;19.038;2023-10-31T10:57:36;3.27;;;1.70;;
19189;SDS011;9727;50.200;19.038;2023-10-31T11:00:06;3.87;;;1.40;;
19189;SDS011;9727;50.200;19.038;2023-10-31T11:02:38;3.47;;;1.63;;
19189;SDS011;9727;50.200;19.038;2023-10-31T11:05:08;1.93;;;1.40;;
19189;SDS011;9727;50.200;19.038;2023-10-31T11:07:35;3.97;;;1.60;;
19189;SDS011;9727;50.200;19.038;2023-10-31T11:10:04;2.70;;;1.30;;
19189;SDS011;9727;50.200;19.038;2023-10-31T11:12:31;2.27;;;1.70;;
19189;SDS011;9727;50.200;19.038;2023-10-31T11:14:59;5.20;;;1.58;;
19189;SDS011;9727;50.200;19.038;2023-10-31T11:17:30;2.07;;;1.27;;
19189;SDS011;9727;50.200;19.038;2023-10-31T11:19:59;1.97;;;1.33;;
19189;SDS011;9727;50.200;19.038;2023-10-31T11:22:36;4.17;;;1.60;;
19189;SDS011;9727;50.200;19.038;2023-10-31T11:25:04;2.33;;;1.20;;
19189;SDS011;9727;50.200;19.038;2023-10-31T11:27:32;3.27;;;1.43;;
19189;SDS011;9727;50.200;19.038;2023-10-31T11:30:00;2.20;;;1.38;;
19189;SDS011;9727;50.200;19.038;2023-10-31T11:32:31;2.47;;;1.40;;
19189;SDS011;9727;50.200;19.038;2023-10-31T11:34:59;1.88;;;1.30;;
19189;SDS011;9727;50.200;19.038;2023-10-31T11:37:31;3.00;;;1.60;;
19189;SDS011;9727;50.200;19.038;2023-10-31T11:40:15;2.88;;;1.23;;
19189;SDS011;9727;50.200;19.038;2023-10-31T11:42:52;5.07;;;1.17;;
19189;SDS011;9727;50.200;19.038;2023-10-31T11:45:26;3.20;;;1.20;;
19189;SDS011;9727;50.200;19.038;2023-10-31T11:47:56;3.40;;;1.50;;
19189;SDS011;9727;50.200;19.038;2023-10-31T11:50:24;3.17;;;1.20;;
19189;SDS011;9727;50.200;19.038;2023-10-31T11:53:01;3.37;;;1.20;;
19189;SDS011;9727;50.200;19.038;2023-10-31T11:55:32;1.60;;;1.27;;
19189;SDS011;9727;50.200;19.038;2023-10-31T11:58:11;2.17;;;1.20;;
19189;SDS011;9727;50.200;19.038;2023-10-31T12:00:39;4.07;;;1.37;;
19189;SDS011;9727;50.200;19.038;2023-10-31T12:03:09;2.78;;;1.48;;
19189;SDS011;9727;50.200;19.038;2023-10-31T12:05:36;2.37;;;1.20;;
19189;SDS011;9727;50.200;19.038;2023-10-31T12:08:04;2.23;;;1.27;;
19189;SDS011;9727;50.200;19.038;2023-10-31T12:10:31;1.57;;;1.10;;
19189;SDS011;9727;50.200;19.038;2023-10-31T12:12:59;2.50;;;1.27;;
19189;SDS011;9727;50.200;19.038;2023-10-31T12:15:26;2.27;;;1.03;;
19189;SDS011;9727;50.200;19.038;2023-10-31T12:17:57;2.07;;;1.10;;
19189;SDS011;9727;50.200;19.038;2023-10-31T12:20:26;8.57;;;1.47;;
19189;SDS011;9727;50.200;19.038;2023-10-31T12:23:02;3.90;;;1.23;;
19189;SDS011;9727;50.200;19.038;2023-10-31T12:25:31;3.67;;;1.10;;
19189;SDS011;9727;50.200;19.038;2023-10-31T12:28:00;2.03;;;1.20;;
19189;SDS011;9727;50.200;19.038;2023-10-31T12:30:44;5.67;;;1.57;;
19189;SDS011;9727;50.200;19.038;2023-10-31T12:33:11;2.17;;;1.30;;
19189;SDS011;9727;50.200;19.038;2023-10-31T12:35:41;3.10;;;1.00;;
19189;SDS011;9727;50.200;19.038;2023-10-31T12:38:23;3.67;;;1.20;;
19189;SDS011;9727;50.200;19.038;2023-10-31T12:40:50;2.80;;;1.20;;
19189;SDS011;9727;50.200;19.038;2023-10-31T12:43:19;2.10;;;1.20;;
19189;SDS011;9727;50.200;19.038;2023-10-31T12:45:50;3.60;;;1.30;;
19189;SDS011;9727;50.200;19.038;2023-10-31T12:48:23;1.60;;;1.23;;
19189;SDS011;9727;50.200;19.038;2023-10-31T12:50:55;1.60;;;1.13;;
19189;SDS011;9727;50.200;19.038;2023-10-31T12:53:32;5.70;;;1.20;;
19189;SDS011;9727;50.200;19.038;2023-10-31T12:56:00;2.83;;;0.90;;
19189;SDS011;9727;50.200;19.038;2023-10-31T12:58:28;1.40;;;1.10;;
19189;SDS011;9727;50.200;19.038;2023-10-31T13:00:55;2.70;;;1.20;;
19189;SDS011;9727;50.200;19.038;2023-10-31T13:03:22;2.37;;;1.33;;
19189;SDS011;9727;50.200;19.038;2023-10-31T13:05:49;2.23;;;1.10;;
19189;SDS011;9727;50.200;19.038;2023-10-31T13:08:22;2.63;;;1.17;;
19189;SDS011;9727;50.200;19.038;2023-10-31T13:10:50;2.80;;;1.13;;
19189;SDS011;9727;50.200;19.038;2023-10-31T13:13:20;3.30;;;1.30;;
19189;SDS011;9727;50.200;19.038;2023-10-31T13:15:48;3.33;;;1.10;;
19189;SDS011;9727;50.200;19.038;2023-10-31T13:18:18;2.10;;;1.13;;
19189;SDS011;9727;50.200;19.038;2023-10-31T13:20:47;1.73;;;1.30;;
19189;SDS011;9727;50.200;19.038;2023-10-31T13:23:18;3.73;;;1.30;;
19189;SDS011;9727;50.200;19.038;2023-10-31T13:25:50;2.87;;;1.50;;
19189;SDS011;9727;50.200;19.038;2023-10-31T13:28:18;3.07;;;1.40;;
19189;SDS011;9727;50.200;19.038;2023-10-31T13:30:48;2.07;;;1.33;;
19189;SDS011;9727;50.200;19.038;2023-10-31T13:33:18;3.53;;;1.50;;
19189;SDS011;9727;50.200;19.038;2023-10-31T13:35:48;2.63;;;1.33;;
19189;SDS011;9727;50.200;19.038;2023-10-31T13:38:18;2.30;;;1.50;;
19189;SDS011;9727;50.200;19.038;2023-10-31T13:40:46;2.53;;;1.40;;
19189;SDS011;9727;50.200;19.038;2023-10-31T13:43:23;2.57;;;1.43;;
19189;SDS011;9727;50.200;19.038;2023-10-31T13:45:51;3.00;;;1.90;;
19189;SDS011;9727;50.200;19.038;2023-10-31T13:48:19;3.87;;;1.30;;
19189;SDS011;9727;50.200;19.038;2023-10-31T13:50:46;2.53;;;1.50;;
19189;SDS011;9727;50.200;19.038;2023-10-31T13:53:19;3.97;;;1.73;;
19189;SDS011;9727;50.200;19.038;2023-10-31T13:55:47;2.93;;;1.70;;
19189;SDS011;9727;50.200;19.038;2023-10-31T13:58:18;5.23;;;1.77;;
19189;SDS011;9727;50.200;19.038;2023-10-31T14:00:47;3.53;;;1.63;;
19189;SDS011;9727;50.200;19.038;2023-10-31T14:03:14;3.20;;;1.80;;
19189;SDS011;9727;50.200;19.038;2023-10-31T14:05:44;3.30;;;1.80;;
19189;SDS011;9727;50.200;19.038;2023-10-31T14:08:11;2.37;;;1.77;;
19189;SDS011;9727;50.200;19.038;2023-10-31T14:10:39;3.27;;;1.70;;
19189;SDS011;9727;50.200;19.038;2023-10-31T14:13:10;3.93;;;2.10;;
19189;SDS011;9727;50.200;19.038;2023-10-31T14:15:41;3.37;;;2.50;;
19189;SDS011;9727;50.200;19.038;2023-10-31T14:18:08;4.93;;;3.07;;
19189;SDS011;9727;50.200;19.038;2023-10-31T14:20:35;6.10;;;2.83;;
19189;SDS011;9727;50.200;19.038;2023-10-31T14:23:04;4.23;;;2.70;;
19189;SDS011;9727;50.200;19.038;2023-10-31T14:25:32;6.67;;;2.40;;
19189;SDS011;9727;50.200;19.038;2023-10-31T14:27:59;6.03;;;3.23;;
19189;SDS011;9727;50.200;19.038;2023-10-31T14:30:27;5.10;;;4.07;;
19189;SDS011;9727;50.200;19.038;2023-10-31T14:32:56;7.43;;;4.40;;
19189;SDS011;9727;50.200;19.038;2023-10-31T14:35:24;5.17;;;4.67;;
19189;SDS011;9727;50.200;19.038;2023-10-31T14:37:51;8.30;;;6.30;;
19189;SDS011;9727;50.200;19.038;2023-10-31T14:40:20;9.60;;;6.10;;
19189;SDS011;9727;50.200;19.038;2023-10-31T14:45:43;7.03;;;5.33;;
19189;SDS011;9727;50.200;19.038;2023-10-31T14:48:12;7.27;;;5.17;;
19189;SDS011;9727;50.200;19.038;2023-10-31T14:50:49;7.80;;;4.70;;
19189;SDS011;9727;50.200;19.038;2023-10-31T14:53:16;7.13;;;4.63;;
19189;SDS011;9727;50.200;19.038;2023-10-31T14:55:45;6.63;;;4.33;;
19189;SDS011;9727;50.200;19.038;2023-10-31T15:00:57;7.93;;;4.43;;
19189;SDS011;9727;50.200;19.038;2023-10-31T15:03:26;9.73;;;4.87;;
19189;SDS011;9727;50.200;19.038;2023-10-31T15:05:53;10.03;;;5.77;;
19189;SDS011;9727;50.200;19.038;2023-10-31T15:08:26;10.17;;;5.77;;